createdAt,value
2023-03-21T00:00:20.165Z,42.90
2023-03-21T00:02:21.967Z,42.90
2023-03-21T00:04:24.897Z,42.90
2023-03-21T00:06:26.781Z,42.90
2023-03-21T00:08:28.566Z,43.00
2023-03-21T00:10:40.070Z,42.90
2023-03-21T00:12:45.785Z,43.00
2023-03-21T00:14:47.580Z,43.00
2023-03-21T00:16:49.594Z,43.00
2023-03-21T00:18:53.909Z,43.00
2023-03-21T00:21:29.432Z,43.00
2023-03-21T00:23:21.605Z,43.00
2023-03-21T00:25:23.524Z,42.90
2023-03-21T00:27:56.870Z,42.90
2023-03-21T00:29:47.724Z,42.90
2023-03-21T00:31:52.841Z,42.90
2023-03-21T00:33:54.664Z,42.90
2023-03-21T00:36:05.203Z,42.90
2023-03-21T00:38:08.585Z,42.90
2023-03-21T00:40:16.203Z,42.90
2023-03-21T00:42:25.230Z,42.90
2023-03-21T00:44:27.204Z,43.00
2023-03-21T00:46:39.802Z,43.00
2023-03-21T00:48:44.494Z,42.90
2023-03-21T00:50:46.903Z,42.90
2023-03-21T00:52:50.928Z,42.90
2023-03-21T00:54:52.773Z,42.90
2023-03-21T00:56:54.597Z,43.00
2023-03-21T00:58:56.359Z,42.90
2023-03-21T01:00:58.217Z,42.90
2023-03-21T01:03:08.440Z,42.90
2023-03-21T01:05:16.326Z,42.80
2023-03-21T01:07:18.127Z,42.90
2023-03-21T01:09:21.222Z,42.90
2023-03-21T01:11:24.993Z,42.90
2023-03-21T01:13:27.074Z,42.80
2023-03-21T01:15:29.853Z,42.80
2023-03-21T01:17:31.682Z,42.80
2023-03-21T01:19:50.293Z,42.90
2023-03-21T01:21:52.859Z,42.80
2023-03-21T01:23:54.725Z,42.80
2023-03-21T01:25:56.904Z,42.80
2023-03-21T01:27:58.817Z,42.90
2023-03-21T01:30:00.635Z,42.80
2023-03-21T01:32:02.431Z,42.80
2023-03-21T01:34:04.245Z,42.80
2023-03-21T01:36:13.053Z,42.80
2023-03-21T01:38:16.429Z,42.80
2023-03-21T01:40:22.300Z,42.80
2023-03-21T01:42:25.682Z,42.80
2023-03-21T01:44:28.077Z,42.80
2023-03-21T01:49:10.877Z,42.80
2023-03-21T01:51:13.325Z,42.80
2023-03-21T01:53:30.062Z,42.80
2023-03-21T01:55:32.576Z,42.80
2023-03-21T01:57:52.180Z,42.80
2023-03-21T02:00:03.868Z,42.80
2023-03-21T02:02:30.581Z,42.80
2023-03-21T02:04:50.375Z,42.80
2023-03-21T02:06:59.054Z,42.80
2023-03-21T02:09:18.648Z,42.80
2023-03-21T02:11:21.205Z,42.80
2023-03-21T02:13:23.422Z,42.90
2023-03-21T02:15:26.558Z,42.80
2023-03-21T02:17:58.945Z,42.90
2023-03-21T02:20:17.973Z,42.90
2023-03-21T02:22:31.494Z,42.80
2023-03-21T02:24:44.281Z,42.90
2023-03-21T02:27:01.429Z,42.80
2023-03-21T02:29:13.810Z,42.80
2023-03-21T02:31:18.747Z,42.80
2023-03-21T02:33:35.720Z,42.80
2023-03-21T02:35:52.518Z,42.80
2023-03-21T02:38:16.288Z,42.80
2023-03-21T02:40:24.301Z,42.80
2023-03-21T02:42:33.079Z,42.80
2023-03-21T02:44:50.633Z,42.80
2023-03-21T02:47:24.132Z,42.80
2023-03-21T02:49:29.734Z,42.80
2023-03-21T02:51:32.841Z,42.80
2023-03-21T02:53:39.046Z,42.80
2023-03-21T02:55:42.820Z,42.90
2023-03-21T02:57:46.982Z,42.80
2023-03-21T02:59:54.563Z,42.80
2023-03-21T03:02:05.174Z,42.80
2023-03-21T03:04:26.529Z,42.80
2023-03-21T03:06:51.869Z,42.80
2023-03-21T03:09:08.516Z,42.80
2023-03-21T03:11:10.322Z,42.80
2023-03-21T03:13:14.973Z,42.80
2023-03-21T03:15:39.558Z,42.80
2023-03-21T03:17:50.725Z,42.80
2023-03-21T03:19:57.229Z,42.80
2023-03-21T03:21:59.341Z,42.80
2023-03-21T03:24:07.304Z,42.80
2023-03-21T03:26:11.413Z,42.80
2023-03-21T03:28:14.611Z,42.80
2023-03-21T03:30:16.767Z,42.80
2023-03-21T03:32:22.931Z,42.80
2023-03-21T03:34:26.620Z,42.80
2023-03-21T03:36:33.844Z,42.80
2023-03-21T03:38:43.156Z,42.90
2023-03-21T03:40:48.454Z,42.80
2023-03-21T03:43:15.886Z,42.80
2023-03-21T03:45:19.534Z,42.90
2023-03-21T03:47:32.229Z,42.80
2023-03-21T03:49:38.391Z,42.80
2023-03-21T03:51:43.974Z,42.90
2023-03-21T03:54:11.284Z,42.90
2023-03-21T03:56:13.711Z,42.80
2023-03-21T03:58:24.041Z,42.80
2023-03-21T04:00:31.829Z,42.80
2023-03-21T04:02:33.626Z,42.80
2023-03-21T04:04:37.891Z,42.90
2023-03-21T04:06:39.858Z,42.80
2023-03-21T04:08:42.588Z,42.80
2023-03-21T04:10:44.743Z,42.80
2023-03-21T04:12:46.585Z,42.80
2023-03-21T04:15:11.068Z,42.90
2023-03-21T04:17:17.913Z,42.90
2023-03-21T04:19:19.683Z,42.80
2023-03-21T04:21:21.915Z,42.80
2023-03-21T04:23:23.814Z,42.80
2023-03-21T04:25:33.325Z,42.80
2023-03-21T04:27:36.701Z,42.80
2023-03-21T04:29:58.448Z,42.80
2023-03-21T04:32:18.261Z,42.80
2023-03-21T04:34:26.518Z,42.80
2023-03-21T04:36:31.842Z,42.80
2023-03-21T04:38:36.469Z,42.80
2023-03-21T04:40:39.620Z,42.90
2023-03-21T04:42:41.647Z,42.80
2023-03-21T04:44:43.446Z,42.80
2023-03-21T04:46:45.308Z,42.90
2023-03-21T04:48:47.934Z,42.80
2023-03-21T04:50:50.421Z,42.80
2023-03-21T04:52:52.294Z,42.80
2023-03-21T04:54:55.202Z,42.90
2023-03-21T04:56:58.268Z,42.80
2023-03-21T04:59:06.726Z,42.80
2023-03-21T05:01:09.026Z,42.90
2023-03-21T05:03:10.831Z,42.80
2023-03-21T05:05:12.660Z,42.80
2023-03-21T05:07:14.532Z,42.80
2023-03-21T05:09:16.385Z,42.80
2023-03-21T05:11:18.241Z,42.80
2023-03-21T05:13:20.160Z,42.80
2023-03-21T05:15:22.711Z,42.80
2023-03-21T05:17:24.677Z,42.80
2023-03-21T05:19:28.147Z,42.80
2023-03-21T05:21:31.173Z,42.80
2023-03-21T05:23:33.433Z,42.90
2023-03-21T05:25:35.881Z,42.80
2023-03-21T05:27:43.596Z,42.90
2023-03-21T05:29:45.798Z,42.80
2023-03-21T05:31:47.614Z,42.80
2023-03-21T05:33:50.338Z,42.80
2023-03-21T05:35:54.298Z,42.90
2023-03-21T05:37:56.145Z,42.80
2023-03-21T05:39:59.919Z,42.80
2023-03-21T05:42:05.882Z,42.80
2023-03-21T05:44:07.771Z,42.80
2023-03-21T05:46:11.405Z,42.90
2023-03-21T05:48:13.671Z,42.80
2023-03-21T05:50:33.166Z,42.80
2023-03-21T05:52:46.865Z,42.80
2023-03-21T05:54:49.658Z,42.80
2023-03-21T05:56:52.002Z,42.80
2023-03-21T05:59:12.603Z,42.80
2023-03-21T06:01:18.286Z,42.80
2023-03-21T06:03:28.102Z,42.90
2023-03-21T06:05:33.988Z,42.80
2023-03-21T06:07:35.907Z,42.80
2023-03-21T06:09:38.025Z,42.80
2023-03-21T06:11:42.717Z,42.80
2023-03-21T06:14:10.425Z,42.90
2023-03-21T06:16:13.202Z,42.80
2023-03-21T06:18:15.110Z,42.80
2023-03-21T06:20:26.599Z,42.90
2023-03-21T06:22:33.089Z,42.80
2023-03-21T06:24:36.173Z,42.80
2023-03-21T06:26:38.175Z,42.90
2023-03-21T06:28:40.043Z,42.80
2023-03-21T06:30:42.077Z,42.80
2023-03-21T06:32:51.639Z,42.80
2023-03-21T06:34:53.713Z,42.80
2023-03-21T06:36:55.677Z,42.80
2023-03-21T06:39:02.573Z,42.80
2023-03-21T06:41:04.901Z,42.80
2023-03-21T06:43:12.521Z,42.80
2023-03-21T06:45:14.418Z,42.80
2023-03-21T06:47:17.781Z,42.90
2023-03-21T06:49:21.156Z,42.80
2023-03-21T06:51:23.320Z,42.80
2023-03-21T06:53:51.242Z,42.80
2023-03-21T06:56:00.689Z,42.90
2023-03-21T06:58:02.483Z,42.80
2023-03-21T07:00:04.632Z,42.80
2023-03-21T07:02:07.207Z,42.80
2023-03-21T07:04:15.413Z,42.80
2023-03-21T07:06:17.441Z,42.80
2023-03-21T07:08:19.759Z,42.80
2023-03-21T07:10:23.513Z,42.80
2023-03-21T07:12:35.217Z,42.80
2023-03-21T07:14:50.675Z,42.90
2023-03-21T07:16:52.630Z,42.80
2023-03-21T07:18:54.555Z,42.80
2023-03-21T07:20:56.426Z,42.80
2023-03-21T07:22:58.601Z,42.80
2023-03-21T07:25:05.435Z,42.80
2023-03-21T07:27:13.245Z,42.80
2023-03-21T07:29:15.054Z,42.80
2023-03-21T07:31:17.482Z,42.80
2023-03-21T07:33:19.381Z,42.80
2023-03-21T07:35:21.817Z,42.90
2023-03-21T07:37:23.606Z,42.90
2023-03-21T07:39:27.602Z,42.80
2023-03-21T07:41:29.682Z,42.80
2023-03-21T07:43:44.566Z,42.80
2023-03-21T07:45:46.430Z,42.80
2023-03-21T07:47:49.368Z,42.80
2023-03-21T07:49:51.233Z,42.90
2023-03-21T07:51:53.084Z,42.80
2023-03-21T07:53:54.926Z,42.90
2023-03-21T07:55:56.745Z,42.90
2023-03-21T07:57:58.624Z,42.90
2023-03-21T08:00:00.429Z,42.80
2023-03-21T08:02:02.351Z,42.90
2023-03-21T08:04:04.270Z,42.90
2023-03-21T08:06:06.233Z,42.90
2023-03-21T08:08:08.069Z,42.90
2023-03-21T08:10:10.254Z,42.90
2023-03-21T08:12:12.097Z,43.10
2023-03-21T08:14:13.992Z,42.90
2023-03-21T08:16:15.874Z,43.30
2023-03-21T08:18:17.641Z,43.20
2023-03-21T08:20:24.353Z,43.10
2023-03-21T08:22:26.407Z,43.00
2023-03-21T08:24:28.353Z,42.70
2023-03-21T08:26:30.174Z,42.50
2023-03-21T08:28:32.024Z,42.30
2023-03-21T08:30:33.816Z,42.20
2023-03-21T08:32:35.688Z,43.60
2023-03-21T08:34:37.490Z,42.30
2023-03-21T08:36:39.740Z,43.40
2023-03-21T08:38:41.489Z,42.50
2023-03-21T08:40:43.314Z,42.10
2023-03-21T08:42:45.429Z,42.00
2023-03-21T08:44:47.353Z,42.00
2023-03-21T08:46:49.145Z,42.30
2023-03-21T08:48:50.990Z,42.10
2023-03-21T08:50:52.890Z,42.10
2023-03-21T08:52:54.705Z,42.10
2023-03-21T08:54:56.515Z,42.10
2023-03-21T08:56:58.660Z,42.00
2023-03-21T08:59:00.487Z,42.10
2023-03-21T09:01:02.759Z,42.30
2023-03-21T09:03:04.629Z,42.20
2023-03-21T09:05:06.572Z,42.10
2023-03-21T09:07:08.414Z,42.10
2023-03-21T09:09:10.229Z,42.00
2023-03-21T09:11:12.125Z,41.90
2023-03-21T09:13:13.937Z,41.90
2023-03-21T09:15:15.727Z,41.90
2023-03-21T09:17:19.297Z,41.90
2023-03-21T09:19:22.508Z,41.80
2023-03-21T09:21:24.608Z,41.70
2023-03-21T09:23:26.418Z,41.70
2023-03-21T09:25:28.275Z,41.70
2023-03-21T09:27:30.122Z,41.70
2023-03-21T09:29:31.911Z,41.50
2023-03-21T09:31:33.772Z,41.50
2023-03-21T09:33:35.580Z,41.50
2023-03-21T09:35:37.711Z,41.50
2023-03-21T09:37:39.645Z,41.30
2023-03-21T09:39:41.811Z,41.30
2023-03-21T09:41:52.476Z,41.30
2023-03-21T09:43:57.320Z,41.20
2023-03-21T09:46:03.587Z,41.80
2023-03-21T09:48:06.407Z,41.20
2023-03-21T09:50:14.802Z,41.10
2023-03-21T09:52:24.803Z,41.00
2023-03-21T09:54:29.037Z,41.00
2023-03-21T09:56:30.906Z,41.40
2023-03-21T09:58:34.471Z,41.80
2023-03-21T10:00:40.429Z,41.20
2023-03-21T10:02:48.929Z,41.30
2023-03-21T10:07:02.190Z,42.50
2023-03-21T10:09:06.006Z,41.40
2023-03-21T10:11:10.641Z,41.00
2023-03-21T10:13:15.494Z,42.10
2023-03-21T10:15:20.261Z,41.50
2023-03-21T10:17:28.571Z,41.60
2023-03-21T10:19:30.414Z,41.70
2023-03-21T10:21:56.941Z,41.70
2023-03-21T10:23:55.834Z,41.60
2023-03-21T10:25:59.824Z,41.60
2023-03-21T10:28:03.338Z,41.60
2023-03-21T10:30:06.258Z,41.30
2023-03-21T10:32:09.565Z,41.60
2023-03-21T10:34:23.272Z,41.60
2023-03-21T10:36:26.374Z,41.50
2023-03-21T10:38:28.495Z,41.50
2023-03-21T10:40:30.419Z,41.50
2023-03-21T10:44:35.557Z,40.90
2023-03-21T10:46:37.686Z,41.00
2023-03-21T10:48:40.948Z,41.30
2023-03-21T10:50:43.970Z,41.10
2023-03-21T10:52:53.261Z,41.20
2023-03-21T10:55:08.969Z,41.00
2023-03-21T10:57:17.893Z,40.90
2023-03-21T10:59:21.364Z,40.90
2023-03-21T11:01:41.951Z,41.00
2023-03-21T11:03:44.948Z,40.80
2023-03-21T11:05:47.080Z,41.10
2023-03-21T11:07:56.818Z,41.00
2023-03-21T11:10:00.104Z,41.00
2023-03-21T11:12:03.531Z,41.10
2023-03-21T11:14:06.979Z,41.30
2023-03-21T11:16:09.007Z,41.50
2023-03-21T11:18:15.373Z,41.60
2023-03-21T11:20:18.277Z,41.50
2023-03-21T11:22:21.268Z,41.50
2023-03-21T11:24:23.191Z,41.40
2023-03-21T11:26:31.050Z,41.40
2023-03-21T11:28:36.325Z,41.40
2023-03-21T11:30:49.211Z,41.30
2023-03-21T11:32:56.081Z,41.40
2023-03-21T11:35:02.036Z,41.70
2023-03-21T11:37:03.884Z,41.70
2023-03-21T11:39:11.684Z,41.90
2023-03-21T11:41:22.177Z,42.00
2023-03-21T11:43:31.638Z,41.90
2023-03-21T11:45:34.505Z,41.80
2023-03-21T11:47:36.879Z,41.80
2023-03-21T11:49:38.666Z,41.90
2023-03-21T11:51:51.611Z,41.90
2023-03-21T11:54:16.728Z,41.90
2023-03-21T11:56:21.325Z,41.70
2023-03-21T11:58:23.167Z,41.60
2023-03-21T12:00:27.525Z,41.60
2023-03-21T12:02:52.581Z,41.80
2023-03-21T12:05:05.218Z,41.90
2023-03-21T12:09:27.788Z,41.60
2023-03-21T12:11:36.230Z,42.50
2023-03-21T12:13:43.846Z,42.10
2023-03-21T12:15:55.622Z,41.90
2023-03-21T12:18:06.590Z,41.80
2023-03-21T12:20:11.535Z,41.60
2023-03-21T12:22:28.705Z,41.60
2023-03-21T12:24:39.197Z,41.30
2023-03-21T12:26:50.582Z,41.60
2023-03-21T12:29:04.835Z,41.90
2023-03-21T12:31:14.466Z,41.90
2023-03-21T12:33:22.350Z,41.60
2023-03-21T12:35:42.594Z,41.40
2023-03-21T12:37:47.180Z,41.50
2023-03-21T12:39:48.989Z,41.60
2023-03-21T12:42:02.918Z,41.50
2023-03-21T12:44:13.904Z,41.30
2023-03-21T12:48:41.567Z,41.10
2023-03-21T12:50:44.594Z,41.10
2023-03-21T12:52:49.625Z,41.00
2023-03-21T12:54:54.537Z,41.10
2023-03-21T12:57:08.103Z,41.10
2023-03-21T12:59:30.168Z,41.00
2023-03-21T13:01:32.906Z,41.10
2023-03-21T13:03:41.191Z,41.10
2023-03-21T13:05:54.048Z,41.00
2023-03-21T13:08:11.944Z,40.80
2023-03-21T13:10:15.422Z,40.30
2023-03-21T13:12:20.302Z,40.50
2023-03-21T13:14:26.621Z,40.00
2023-03-21T13:16:39.643Z,39.70
2023-03-21T13:18:49.720Z,39.70
2023-03-21T13:20:51.541Z,40.10
2023-03-21T13:22:53.422Z,39.90
2023-03-21T13:24:59.509Z,39.40
2023-03-21T13:27:15.772Z,39.00
2023-03-21T13:29:22.953Z,38.70
2023-03-21T13:31:25.772Z,38.60
2023-03-21T13:33:32.343Z,38.20
2023-03-21T13:35:34.217Z,38.50
2023-03-21T13:37:39.670Z,39.00
2023-03-21T13:39:43.649Z,38.40
2023-03-21T13:41:46.824Z,38.30
2023-03-21T13:43:53.007Z,39.40
2023-03-21T13:45:54.955Z,39.70
2023-03-21T13:47:58.243Z,38.90
2023-03-21T13:50:18.479Z,39.20
2023-03-21T13:52:20.243Z,39.60
2023-03-21T13:54:29.849Z,40.30
2023-03-21T13:56:52.619Z,40.00
2023-03-21T13:59:00.054Z,39.40
2023-03-21T14:01:11.523Z,39.60
2023-03-21T14:03:19.477Z,39.20
2023-03-21T14:05:22.227Z,38.70
2023-03-21T14:07:31.583Z,39.00
2023-03-21T14:09:38.143Z,39.20
2023-03-21T14:11:46.493Z,39.10
2023-03-21T14:13:51.662Z,39.10
2023-03-21T14:15:56.713Z,39.20
2023-03-21T14:18:00.205Z,39.20
2023-03-21T14:20:14.415Z,39.10
2023-03-21T14:22:16.202Z,39.40
2023-03-21T14:24:18.581Z,39.20
2023-03-21T14:26:20.515Z,39.00
2023-03-21T14:28:26.381Z,39.20
2023-03-21T14:30:32.001Z,39.30
2023-03-21T14:32:34.802Z,39.60
2023-03-21T14:34:37.163Z,39.80
2023-03-21T14:36:43.222Z,40.20
2023-03-21T14:38:58.519Z,39.40
2023-03-21T14:41:00.320Z,39.60
2023-03-21T14:43:06.112Z,39.70
2023-03-21T14:45:14.475Z,40.40
2023-03-21T14:49:26.592Z,39.60
2023-03-21T14:51:28.418Z,40.10
2023-03-21T14:55:32.572Z,39.50
2023-03-21T14:57:34.469Z,40.00
2023-03-21T14:59:37.970Z,40.40
2023-03-21T15:01:40.122Z,39.90
2023-03-21T15:03:44.530Z,40.10
2023-03-21T15:05:46.537Z,40.30
2023-03-21T15:07:55.609Z,40.30
2023-03-21T15:09:59.070Z,40.30
2023-03-21T15:12:01.674Z,40.50
2023-03-21T15:14:08.242Z,40.60
2023-03-21T15:16:11.295Z,40.80
2023-03-21T15:18:15.467Z,40.80
2023-03-21T15:20:17.342Z,40.70
2023-03-21T15:22:25.120Z,40.60
2023-03-21T15:24:31.898Z,40.50
2023-03-21T15:26:33.822Z,40.70
2023-03-21T15:30:37.902Z,40.20
2023-03-21T15:32:39.740Z,40.70
2023-03-21T15:34:41.740Z,40.90
2023-03-21T15:36:44.698Z,41.00
2023-03-21T15:38:46.705Z,40.90
2023-03-21T15:40:48.544Z,41.00
2023-03-21T15:42:50.466Z,41.10
2023-03-21T15:44:53.183Z,41.30
2023-03-21T15:46:55.703Z,41.40
2023-03-21T15:49:26.661Z,41.30
2023-03-21T15:53:34.770Z,41.20
2023-03-21T15:55:50.410Z,41.40
2023-03-21T15:57:59.199Z,41.40
2023-03-21T16:00:18.385Z,41.30
2023-03-21T16:02:22.753Z,41.30
2023-03-21T16:04:24.654Z,41.50
2023-03-21T16:06:33.640Z,41.80
2023-03-21T16:08:36.555Z,42.30
2023-03-21T16:10:38.758Z,41.80
2023-03-21T16:12:40.678Z,41.70
2023-03-21T16:14:42.511Z,41.70
2023-03-21T16:16:45.169Z,41.80
2023-03-21T16:18:47.099Z,42.00
2023-03-21T16:20:48.860Z,42.20
2023-03-21T16:22:50.670Z,42.00
2023-03-21T16:24:52.552Z,42.10
2023-03-21T16:26:54.436Z,42.40
2023-03-21T16:28:56.265Z,42.80
2023-03-21T16:30:58.112Z,42.90
2023-03-21T16:32:59.947Z,42.60
2023-03-21T16:35:01.842Z,42.40
2023-03-21T16:39:16.190Z,42.20
2023-03-21T16:41:18.429Z,42.50
2023-03-21T16:43:20.714Z,42.20
2023-03-21T16:45:23.034Z,42.10
2023-03-21T16:47:24.787Z,42.30
2023-03-21T16:49:27.436Z,42.50
2023-03-21T16:51:33.757Z,42.80
2023-03-21T16:53:35.560Z,42.70
2023-03-21T16:55:37.874Z,42.90
2023-03-21T16:57:39.730Z,42.80
2023-03-21T16:59:41.531Z,42.70
2023-03-21T17:01:43.793Z,42.80
2023-03-21T17:03:46.503Z,42.80
2023-03-21T17:05:48.525Z,43.20
2023-03-21T17:07:50.319Z,42.80
2023-03-21T17:09:52.196Z,42.60
2023-03-21T17:11:53.935Z,42.70
2023-03-21T17:13:55.918Z,42.50
2023-03-21T17:15:57.784Z,42.50
2023-03-21T17:17:59.633Z,42.60
2023-03-21T17:20:01.841Z,42.60
2023-03-21T17:22:03.694Z,42.60
2023-03-21T17:24:05.537Z,42.70
2023-03-21T17:26:07.705Z,42.70
2023-03-21T17:28:09.511Z,42.70
2023-03-21T17:30:31.626Z,42.70
2023-03-21T17:32:33.466Z,42.70
2023-03-21T17:34:35.259Z,42.80
2023-03-21T17:36:39.079Z,42.70
2023-03-21T17:38:40.952Z,42.80
2023-03-21T17:40:42.790Z,42.80
2023-03-21T17:42:44.603Z,42.80
2023-03-21T17:44:46.642Z,42.80
2023-03-21T17:46:51.187Z,42.90
2023-03-21T17:48:53.726Z,43.00
2023-03-21T17:50:55.585Z,43.10
2023-03-21T17:52:57.417Z,43.10
2023-03-21T17:54:59.465Z,43.10
2023-03-21T17:57:01.258Z,43.00
2023-03-21T17:59:06.869Z,43.00
2023-03-21T18:01:08.763Z,43.10
2023-03-21T18:03:10.505Z,43.10
2023-03-21T18:05:12.434Z,43.00
2023-03-21T18:07:18.450Z,43.00
2023-03-21T18:09:26.669Z,43.00
2023-03-21T18:11:28.551Z,42.90
2023-03-21T18:13:30.389Z,43.00
2023-03-21T18:15:32.206Z,43.10
2023-03-21T18:17:34.199Z,43.00
2023-03-21T18:19:36.189Z,43.10
2023-03-21T18:21:38.131Z,43.20
2023-03-21T18:23:40.522Z,43.20
2023-03-21T18:25:42.377Z,43.20
2023-03-21T18:28:06.801Z,43.20
2023-03-21T18:30:41.115Z,43.20
2023-03-21T18:32:28.664Z,43.30
2023-03-21T18:34:30.513Z,43.10
2023-03-21T18:36:32.346Z,43.10
2023-03-21T18:38:34.285Z,43.20
2023-03-21T18:40:36.432Z,43.20
2023-03-21T18:42:38.950Z,43.10
2023-03-21T18:44:41.068Z,43.20
2023-03-21T18:46:43.422Z,43.10
2023-03-21T18:48:45.259Z,43.20
2023-03-21T18:50:47.104Z,43.20
2023-03-21T18:52:48.919Z,43.20
2023-03-21T18:54:50.761Z,43.20
2023-03-21T18:59:14.381Z,43.10
2023-03-21T19:01:16.366Z,43.10
2023-03-21T19:03:30.132Z,43.20
2023-03-21T19:05:37.325Z,43.20
2023-03-21T19:07:39.358Z,43.20
2023-03-21T19:10:05.270Z,43.70
2023-03-21T19:12:03.620Z,43.10
2023-03-21T19:14:05.376Z,43.20
2023-03-21T19:16:11.144Z,43.10
2023-03-21T19:18:37.618Z,43.00
2023-03-21T19:20:35.159Z,43.10
2023-03-21T19:22:36.908Z,43.10
2023-03-21T19:24:38.783Z,43.10
2023-03-21T19:26:40.963Z,43.10
2023-03-21T19:28:42.756Z,43.10
2023-03-21T19:30:50.191Z,43.20
2023-03-21T19:32:52.190Z,43.20
2023-03-21T19:34:54.025Z,43.20
2023-03-21T19:36:55.903Z,43.20
2023-03-21T19:38:57.735Z,43.20
2023-03-21T19:40:59.973Z,43.20
2023-03-21T19:43:21.565Z,43.10
2023-03-21T19:45:23.638Z,43.10
2023-03-21T19:47:25.522Z,43.10
2023-03-21T19:49:45.655Z,43.10
2023-03-21T19:51:49.125Z,43.20
2023-03-21T19:53:51.068Z,43.30
2023-03-21T19:55:54.135Z,43.10
2023-03-21T19:57:56.166Z,43.10
2023-03-21T19:59:57.960Z,43.10
2023-03-21T20:02:21.644Z,43.10
2023-03-21T20:04:21.563Z,43.00
2023-03-21T20:06:23.316Z,43.10
2023-03-21T20:08:25.172Z,43.00
2023-03-21T20:10:27.031Z,43.00
2023-03-21T20:12:28.780Z,43.00
2023-03-21T20:14:30.634Z,43.00
2023-03-21T20:16:34.733Z,43.00
2023-03-21T20:18:37.430Z,43.00
2023-03-21T20:20:39.845Z,42.90
2023-03-21T20:25:04.286Z,43.00
2023-03-21T20:27:06.461Z,42.90
2023-03-21T20:29:54.994Z,42.90
2023-03-21T20:31:30.176Z,42.80
2023-03-21T20:33:32.469Z,43.40
2023-03-21T20:36:23.588Z,42.80
2023-03-21T20:37:56.069Z,42.70
2023-03-21T20:39:57.801Z,42.70
2023-03-21T20:41:59.771Z,42.70
2023-03-21T20:46:23.460Z,42.60
2023-03-21T20:48:25.372Z,42.60
2023-03-21T20:50:27.873Z,42.60
2023-03-21T20:52:54.808Z,42.50
2023-03-21T20:54:51.838Z,42.60
2023-03-21T20:56:53.645Z,42.40
2023-03-21T20:59:08.615Z,42.40
2023-03-21T21:01:17.311Z,42.30
2023-03-21T21:03:19.121Z,42.30
2023-03-21T21:05:28.052Z,42.30
2023-03-21T21:07:31.262Z,42.30
2023-03-21T21:09:33.154Z,42.30
2023-03-21T21:12:06.270Z,42.30
2023-03-21T21:13:56.760Z,42.20
2023-03-21T21:15:58.593Z,42.30
2023-03-21T21:18:08.399Z,42.20
2023-03-21T21:20:12.337Z,42.20
2023-03-21T21:22:14.217Z,42.10
2023-03-21T21:24:16.576Z,42.10
2023-03-21T21:26:18.432Z,42.10
2023-03-21T21:28:21.090Z,42.00
2023-03-21T21:30:24.343Z,42.10
2023-03-21T21:32:26.140Z,42.10
2023-03-21T21:34:28.025Z,42.10
2023-03-21T21:36:29.806Z,42.00
2023-03-21T21:38:31.648Z,42.10
2023-03-21T21:40:33.471Z,42.00
2023-03-21T21:42:35.269Z,42.00
2023-03-21T21:44:37.066Z,42.00
2023-03-21T21:46:38.928Z,41.90
2023-03-21T21:48:41.073Z,41.90
2023-03-21T21:50:42.880Z,41.80
2023-03-21T21:52:44.742Z,41.80
2023-03-21T21:54:46.472Z,41.80
2023-03-21T21:56:48.372Z,41.80
2023-03-21T21:58:53.119Z,41.80
2023-03-21T22:00:58.125Z,41.80
2023-03-21T22:03:00.293Z,41.70
2023-03-21T22:05:02.835Z,41.70
2023-03-21T22:07:04.637Z,41.70
2023-03-21T22:09:06.505Z,41.60
2023-03-21T22:11:08.242Z,41.60
2023-03-21T22:13:10.082Z,41.60
2023-03-21T22:15:12.048Z,41.60
2023-03-21T22:17:13.791Z,41.60
2023-03-21T22:19:15.632Z,41.60
2023-03-21T22:21:17.451Z,41.60
2023-03-21T22:23:19.314Z,41.50
2023-03-21T22:25:21.279Z,41.50
2023-03-21T22:27:23.088Z,41.50
2023-03-21T22:29:25.721Z,41.60
2023-03-21T22:31:27.560Z,41.60
2023-03-21T22:33:29.350Z,41.50
2023-03-21T22:35:31.242Z,41.50
2023-03-21T22:37:34.106Z,41.50
2023-03-21T22:39:36.046Z,41.50
2023-03-21T22:41:37.794Z,41.50
2023-03-21T22:43:39.606Z,41.50
2023-03-21T22:45:41.525Z,41.40
2023-03-21T22:47:43.409Z,41.40
2023-03-21T22:49:45.245Z,41.40
2023-03-21T22:51:47.061Z,41.40
2023-03-21T22:53:48.898Z,41.50
2023-03-21T22:55:51.043Z,41.40
2023-03-21T22:57:52.879Z,41.40
2023-03-21T22:59:54.689Z,41.40
2023-03-21T23:01:57.042Z,41.40
2023-03-21T23:03:58.941Z,41.40
2023-03-21T23:06:00.806Z,41.30
2023-03-21T23:08:02.533Z,41.40
2023-03-21T23:10:05.031Z,41.30
2023-03-21T23:12:06.843Z,41.40
2023-03-21T23:14:08.871Z,41.40
2023-03-21T23:16:10.792Z,41.30
2023-03-21T23:18:12.703Z,41.30
2023-03-21T23:20:14.513Z,41.30
2023-03-21T23:22:16.352Z,41.20
2023-03-21T23:24:18.176Z,41.20
2023-03-21T23:26:21.729Z,41.30
2023-03-21T23:28:23.533Z,41.30
2023-03-21T23:30:25.431Z,41.30
2023-03-21T23:32:27.288Z,41.30
2023-03-21T23:34:29.040Z,41.30
2023-03-21T23:36:31.058Z,41.30
2023-03-21T23:38:33.258Z,41.30
2023-03-21T23:40:38.162Z,41.90
2023-03-21T23:42:40.203Z,41.20
2023-03-21T23:44:41.983Z,41.20
2023-03-21T23:46:43.793Z,41.20
2023-03-21T23:48:46.188Z,41.20
2023-03-21T23:50:48.110Z,41.20
2023-03-21T23:52:49.953Z,41.20
2023-03-21T23:54:51.732Z,41.30
2023-03-21T23:56:53.529Z,41.20
2023-03-21T23:58:57.181Z,41.30
